KLIC/LIC METAR and TAF weather

Enter ICAO airport designator
Station Type Date Time Source
KLIC METAR 2024/04/18 07:18 UTC NOAA

KLIC 180718Z AUTO 35021G32KT 10SM OVC006 02/M01 A3010 RMK AO2 PK WND 35032/0713 T00171006


Station Type Date Time Source
KLIC Decoded METAR 2024/04/18 07:18 UTC NOAA

LIMON MUNICIPAL AIRPORT, CO, United States (KLIC) 39-16N 103-40W 1630M
Apr 18, 2024 - 03:18 AM EDT / 2024.04.18 0718 UTC
Wind: from the N (350 degrees) at 24 MPH (21 KT) gusting to 37 MPH (32 KT):0
Visibility: 10 mile(s):0
Sky conditions: overcast
Temperature: 35.1 F (1.7 C)
Dew Point: 30.9 F (-0.6 C)
Relative Humidity: 84%
Pressure (altimeter): 30.1 in. Hg (1019 hPa)
ob: KLIC 180718Z AUTO 35021G32KT 10SM OVC006 02/M01 A3010 RMK AO2 PK WND 35032/0713 T00171006
cycle: 7

Station Type Date Time Source
KLIC TAF UTC NOAA

Error!

Example: see airport list